Time;durP1;ratioP1;P1;durP2;ratioP2;P2;SDS_P1;SDS_P2;PMS_P1;PMS_P2;Temp;Humidity;BMP_temperature;BMP_pressure;BME280_temperature;BME280_humidity;BME280_pressure;Samples;Min_cycle;Max_cycle;Signal;HPM_P1;HPM_P2
2021/10/14 00:00:47;;;;;;;11.37;6.67;;;;;;;;;;5067837;28;20185;-74
2021/10/14 00:03:12;;;;;;;8.43;6.60;;;;;;;;;;5065426;28;20173;-73
2021/10/14 00:05:37;;;;;;;10.27;6.17;;;;;;;;;;5064369;28;20185;-73
2021/10/14 00:08:02;;;;;;;11.80;6.90;;;;;;;;;;5058320;28;20322;-74
2021/10/14 00:10:28;;;;;;;14.33;7.07;;;;;;;;;;5044115;28;20185;-73
2021/10/14 00:12:54;;;;;;;10.73;7.22;;;;;;;;;;5073363;28;20188;-74
2021/10/14 00:15:19;;;;;;;9.60;6.73;;;;;;;;;;5071770;28;20185;-74
2021/10/14 00:17:44;;;;;;;13.43;7.17;;;;;;;;;;5059831;28;20207;-73
2021/10/14 00:20:10;;;;;;;13.20;8.03;;;;;;;;;;5067497;28;20209;-73
2021/10/14 00:22:36;;;;;;;12.83;8.23;;;;;;;;;;5066772;28;20223;-73
2021/10/14 00:25:01;;;;;;;15.13;7.80;;;;;;;;;;5051449;28;20173;-74
2021/10/14 00:27:27;;;;;;;12.23;7.88;;;;;;;;;;5050076;28;20201;-74
2021/10/14 00:29:52;;;;;;;14.57;9.43;;;;;;;;;;5068855;28;20237;-74
2021/10/14 00:32:17;;;;;;;14.60;9.20;;;;;;;;;;5066691;28;20173;-73
2021/10/14 00:34:42;;;;;;;12.57;8.10;;;;;;;;;;5066344;28;20674;-72
2021/10/14 00:37:08;;;;;;;16.10;10.23;;;;;;;;;;5068141;28;20277;-74
2021/10/14 00:39:33;;;;;;;13.15;9.30;;;;;;;;;;5068498;28;20662;-74
2021/10/14 00:41:58;;;;;;;13.13;9.63;;;;;;;;;;5043012;28;20559;-74
2021/10/14 00:44:23;;;;;;;13.25;9.73;;;;;;;;;;5065732;28;20181;-74
2021/10/14 00:46:52;;;;;;;18.38;11.57;;;;;;;;;;5064816;28;20219;-73
2021/10/14 00:49:17;;;;;;;15.35;10.73;;;;;;;;;;5067047;28;20567;-74
2021/10/14 00:51:43;;;;;;;15.70;10.38;;;;;;;;;;5067653;28;20176;-73
2021/10/14 00:54:08;;;;;;;14.05;10.38;;;;;;;;;;5068018;28;20169;-73
2021/10/14 00:56:33;;;;;;;17.35;11.52;;;;;;;;;;5045025;28;20262;-73
2021/10/14 00:58:59;;;;;;;14.80;11.05;;;;;;;;;;5059306;28;20234;-74
2021/10/14 01:01:24;;;;;;;19.30;12.02;;;;;;;;;;5058397;28;20201;-74
2021/10/14 01:03:49;;;;;;;15.10;11.75;;;;;;;;;;5055110;28;20208;-73
2021/10/14 01:06:14;;;;;;;16.60;12.23;;;;;;;;;;5065988;28;20196;-74
2021/10/14 01:08:39;;;;;;;17.58;13.40;;;;;;;;;;5062701;28;20540;-74
2021/10/14 01:11:05;;;;;;;17.40;13.18;;;;;;;;;;5061064;28;20196;-75
2021/10/14 01:13:30;;;;;;;17.02;12.68;;;;;;;;;;5067750;28;20199;-74
2021/10/14 01:15:55;;;;;;;22.15;13.88;;;;;;;;;;5068461;28;20200;-74
2021/10/14 01:18:20;;;;;;;18.92;13.93;;;;;;;;;;5060581;28;20273;-74
2021/10/14 01:20:45;;;;;;;21.63;15.05;;;;;;;;;;5065878;28;20223;-74
2021/10/14 01:23:12;;;;;;;21.50;14.43;;;;;;;;;;5065706;28;20654;-74
2021/10/14 01:25:37;;;;;;;22.30;13.93;;;;;;;;;;5055685;28;20533;-74
2021/10/14 01:28:03;;;;;;;24.15;14.65;;;;;;;;;;5054080;28;20188;-73
2021/10/14 01:30:28;;;;;;;19.95;14.68;;;;;;;;;;5057824;28;20646;-73
2021/10/14 01:32:53;;;;;;;21.73;15.50;;;;;;;;;;5069693;28;20204;-74
2021/10/14 01:35:18;;;;;;;21.52;14.38;;;;;;;;;;5063236;28;20207;-74
2021/10/14 01:37:43;;;;;;;20.10;14.05;;;;;;;;;;5066075;28;20646;-73
2021/10/14 01:40:09;;;;;;;23.35;15.75;;;;;;;;;;5072498;28;20185;-75
2021/10/14 01:42:34;;;;;;;25.63;15.10;;;;;;;;;;5048304;28;20173;-74
2021/10/14 01:45:00;;;;;;;23.10;15.27;;;;;;;;;;5054470;28;20230;-73
2021/10/14 01:47:25;;;;;;;25.30;16.17;;;;;;;;;;5072214;28;20196;-73
2021/10/14 01:49:51;;;;;;;24.20;16.13;;;;;;;;;;5071861;28;20274;-75
2021/10/14 01:52:16;;;;;;;26.63;16.30;;;;;;;;;;5067584;28;20176;-74
2021/10/14 01:54:41;;;;;;;31.25;16.63;;;;;;;;;;5067579;28;20651;-74
2021/10/14 01:57:06;;;;;;;22.98;15.27;;;;;;;;;;5071035;28;20231;-74
2021/10/14 01:59:31;;;;;;;24.75;15.93;;;;;;;;;;5073660;28;20176;-73
2021/10/14 02:01:56;;;;;;;26.63;15.35;;;;;;;;;;5071322;28;20227;-73
2021/10/14 02:04:22;;;;;;;24.55;15.48;;;;;;;;;;5072222;28;20181;-74
2021/10/14 02:06:47;;;;;;;22.67;14.85;;;;;;;;;;5061849;28;20739;-73
2021/10/14 02:09:12;;;;;;;23.83;16.13;;;;;;;;;;5068257;28;20261;-73
2021/10/14 02:11:37;;;;;;;26.70;15.35;;;;;;;;;;5065838;28;20824;-73
2021/10/14 02:14:02;;;;;;;23.40;15.73;;;;;;;;;;5072344;28;20427;-73
2021/10/14 02:16:28;;;;;;;26.15;17.27;;;;;;;;;;5072112;28;20276;-73
2021/10/14 02:18:53;;;;;;;26.38;16.80;;;;;;;;;;5073321;28;20635;-74
2021/10/14 02:21:18;;;;;;;27.00;15.70;;;;;;;;;;5051459;28;20713;-74
2021/10/14 02:23:43;;;;;;;33.22;18.75;;;;;;;;;;5065236;28;20564;-74
2021/10/14 02:26:09;;;;;;;29.73;17.73;;;;;;;;;;5063661;28;20197;-74
2021/10/14 02:28:34;;;;;;;29.80;17.27;;;;;;;;;;5063060;28;20173;-74
2021/10/14 02:30:59;;;;;;;29.02;16.95;;;;;;;;;;5067306;28;20193;-74
2021/10/14 02:33:24;;;;;;;30.10;17.85;;;;;;;;;;5071970;28;20181;-74
2021/10/14 02:35:49;;;;;;;29.67;16.90;;;;;;;;;;5069561;28;20208;-73
2021/10/14 02:38:15;;;;;;;25.48;17.08;;;;;;;;;;5068378;28;20642;-74
2021/10/14 02:40:40;;;;;;;33.47;18.55;;;;;;;;;;5071377;28;20301;-74
2021/10/14 02:43:05;;;;;;;27.67;17.08;;;;;;;;;;5074231;28;20253;-74
2021/10/14 02:45:30;;;;;;;26.38;17.23;;;;;;;;;;5074087;28;20178;-74
2021/10/14 02:47:55;;;;;;;28.63;18.02;;;;;;;;;;5073853;28;21013;-74
2021/10/14 02:50:21;;;;;;;30.90;18.65;;;;;;;;;;5056446;28;20184;-73
2021/10/14 02:52:46;;;;;;;33.13;16.88;;;;;;;;;;5057575;28;20177;-74
2021/10/14 02:55:11;;;;;;;31.35;19.63;;;;;;;;;;5072358;28;20280;-74
2021/10/14 02:57:36;;;;;;;24.65;18.05;;;;;;;;;;5072542;28;20227;-73
2021/10/14 03:00:02;;;;;;;30.60;19.10;;;;;;;;;;5055082;28;20563;-74
2021/10/14 03:02:27;;;;;;;24.98;18.63;;;;;;;;;;5070222;28;20677;-72
2021/10/14 03:04:53;;;;;;;28.92;17.98;;;;;;;;;;5072026;28;20338;-74
2021/10/14 03:07:18;;;;;;;28.52;17.42;;;;;;;;;;5055881;28;20226;-74
2021/10/14 03:09:43;;;;;;;28.02;18.63;;;;;;;;;;5066964;28;20193;-74
2021/10/14 03:12:08;;;;;;;26.40;17.27;;;;;;;;;;5059482;28;20200;-74
2021/10/14 03:14:33;;;;;;;32.50;18.60;;;;;;;;;;5069439;28;20231;-74
2021/10/14 03:16:58;;;;;;;31.55;18.67;;;;;;;;;;5071339;28;20201;-74
2021/10/14 03:19:24;;;;;;;30.20;18.73;;;;;;;;;;5060744;28;20541;-73
2021/10/14 03:21:49;;;;;;;28.30;18.35;;;;;;;;;;5067824;28;20187;-73
2021/10/14 03:24:14;;;;;;;29.05;18.65;;;;;;;;;;5068178;28;20182;-73
2021/10/14 03:26:39;;;;;;;29.13;17.80;;;;;;;;;;5067135;28;20212;-73
2021/10/14 03:29:04;;;;;;;32.45;20.00;;;;;;;;;;5067045;28;20173;-74
2021/10/14 03:31:29;;;;;;;29.33;18.10;;;;;;;;;;5064554;28;20662;-74
2021/10/14 03:33:56;;;;;;;29.05;20.38;;;;;;;;;;5067913;28;20192;-74
2021/10/14 03:36:21;;;;;;;32.22;19.80;;;;;;;;;;5070720;28;20288;-74
2021/10/14 03:38:46;;;;;;;27.40;19.33;;;;;;;;;;5070903;28;20276;-73
2021/10/14 03:41:11;;;;;;;29.92;18.88;;;;;;;;;;5068734;28;20200;-75
2021/10/14 03:43:37;;;;;;;28.20;19.73;;;;;;;;;;5071550;28;20244;-74
2021/10/14 03:46:02;;;;;;;29.25;19.02;;;;;;;;;;5065999;28;20197;-73
2021/10/14 03:48:27;;;;;;;30.50;19.40;;;;;;;;;;5070526;28;20185;-74
2021/10/14 03:50:52;;;;;;;35.88;19.92;;;;;;;;;;5071150;28;20177;-73
2021/10/14 03:53:17;;;;;;;36.45;19.92;;;;;;;;;;5065348;28;20227;-74
2021/10/14 03:55:42;;;;;;;32.17;20.48;;;;;;;;;;5062784;28;20269;-73
2021/10/14 03:58:08;;;;;;;34.05;20.75;;;;;;;;;;5058754;28;20185;-74
2021/10/14 04:00:33;;;;;;;28.73;18.80;;;;;;;;;;5063429;28;20276;-74
2021/10/14 04:02:58;;;;;;;30.25;19.30;;;;;;;;;;5051570;28;20590;-74
2021/10/14 04:05:23;;;;;;;30.52;19.80;;;;;;;;;;5068565;28;20258;-74
2021/10/14 04:07:49;;;;;;;30.90;19.50;;;;;;;;;;5071718;28;20279;-74
2021/10/14 04:10:14;;;;;;;28.77;18.73;;;;;;;;;;5055613;28;20185;-75
2021/10/14 04:12:40;;;;;;;31.02;19.27;;;;;;;;;;5064583;28;20383;-74
2021/10/14 04:15:05;;;;;;;30.75;19.30;;;;;;;;;;5068360;28;20173;-73
2021/10/14 04:17:30;;;;;;;29.08;19.58;;;;;;;;;;5060287;28;20785;-74
2021/10/14 04:19:55;;;;;;;35.30;21.83;;;;;;;;;;5066441;28;20201;-73
2021/10/14 04:22:21;;;;;;;33.53;20.38;;;;;;;;;;5065207;28;20269;-74
2021/10/14 04:24:47;;;;;;;30.58;20.90;;;;;;;;;;5054772;28;20177;-73
2021/10/14 04:27:13;;;;;;;34.22;21.23;;;;;;;;;;5044278;28;20208;-74
2021/10/14 04:29:38;;;;;;;26.67;19.58;;;;;;;;;;5070108;28;20188;-74
2021/10/14 04:32:06;;;;;;;35.55;21.13;;;;;;;;;;5068263;28;20209;-74
2021/10/14 04:34:32;;;;;;;31.50;20.42;;;;;;;;;;5057687;28;20178;-74
2021/10/14 04:36:57;;;;;;;30.02;20.40;;;;;;;;;;5068260;28;20732;-74
2021/10/14 04:39:22;;;;;;;33.33;22.20;;;;;;;;;;5070100;28;20284;-74
2021/10/14 04:41:47;;;;;;;32.15;20.90;;;;;;;;;;5061033;28;20165;-73
2021/10/14 04:44:12;;;;;;;31.40;21.60;;;;;;;;;;5043377;28;20200;-73
2021/10/14 04:46:38;;;;;;;34.55;21.70;;;;;;;;;;5061342;28;20203;-74
2021/10/14 04:49:03;;;;;;;33.40;20.73;;;;;;;;;;5068591;28;20165;-75
2021/10/14 04:51:28;;;;;;;33.65;20.15;;;;;;;;;;5044514;28;20173;-72
2021/10/14 04:53:53;;;;;;;32.33;21.38;;;;;;;;;;5057338;28;20177;-74
2021/10/14 04:56:19;;;;;;;32.05;22.13;;;;;;;;;;5054286;28;20635;-72
2021/10/14 04:58:44;;;;;;;32.20;22.48;;;;;;;;;;5065133;28;20192;-74
2021/10/14 05:01:09;;;;;;;34.17;20.40;;;;;;;;;;5062410;28;20205;-74
2021/10/14 05:03:34;;;;;;;33.20;21.20;;;;;;;;;;5062458;28;20665;-74
2021/10/14 05:05:59;;;;;;;31.02;21.52;;;;;;;;;;5064762;28;20201;-74
2021/10/14 05:08:25;;;;;;;31.90;21.67;;;;;;;;;;5038253;28;20177;-74
2021/10/14 05:10:50;;;;;;;33.35;22.08;;;;;;;;;;5058491;28;20719;-74
2021/10/14 05:13:15;;;;;;;33.10;21.85;;;;;;;;;;5066196;28;20177;-74
2021/10/14 05:15:41;;;;;;;32.47;21.77;;;;;;;;;;5043142;28;20180;-73
2021/10/14 05:18:06;;;;;;;30.10;21.38;;;;;;;;;;5058231;28;20185;-74
2021/10/14 05:20:32;;;;;;;33.13;21.92;;;;;;;;;;5065837;28;20253;-74
2021/10/14 05:22:57;;;;;;;34.03;22.33;;;;;;;;;;5069456;28;20651;-75
2021/10/14 05:25:22;;;;;;;30.98;21.63;;;;;;;;;;5044749;28;20251;-73
2021/10/14 05:27:47;;;;;;;34.15;21.65;;;;;;;;;;5066276;28;20213;-74
2021/10/14 05:30:12;;;;;;;35.83;23.15;;;;;;;;;;5070667;28;20230;-73
2021/10/14 05:32:38;;;;;;;30.42;21.73;;;;;;;;;;5066838;28;20177;-74
2021/10/14 05:35:03;;;;;;;32.00;22.60;;;;;;;;;;5070505;28;20235;-74
2021/10/14 05:37:29;;;;;;;34.78;23.75;;;;;;;;;;5070893;28;20213;-73
2021/10/14 05:39:54;;;;;;;35.08;22.55;;;;;;;;;;5065991;28;20250;-74
2021/10/14 05:42:19;;;;;;;32.85;21.77;;;;;;;;;;5060793;28;20263;-74
2021/10/14 05:44:44;;;;;;;37.30;24.10;;;;;;;;;;5064692;28;20176;-74
2021/10/14 05:47:09;;;;;;;34.35;23.42;;;;;;;;;;5068315;28;20197;-74
2021/10/14 05:49:35;;;;;;;36.05;24.45;;;;;;;;;;5057503;28;20205;-74
2021/10/14 05:52:00;;;;;;;34.03;23.45;;;;;;;;;;5068133;28;20177;-74
2021/10/14 05:54:25;;;;;;;36.72;23.83;;;;;;;;;;5071277;28;20181;-75
2021/10/14 05:56:50;;;;;;;40.58;23.90;;;;;;;;;;5070014;28;20284;-74
2021/10/14 05:59:15;;;;;;;33.53;22.30;;;;;;;;;;5052504;28;20592;-74
2021/10/14 06:01:40;;;;;;;42.15;24.92;;;;;;;;;;5041782;28;20202;-74
2021/10/14 06:04:06;;;;;;;35.40;23.30;;;;;;;;;;5050403;28;20173;-74
2021/10/14 06:06:31;;;;;;;39.80;24.75;;;;;;;;;;5061194;28;20695;-74
2021/10/14 06:08:56;;;;;;;35.40;24.95;;;;;;;;;;5061308;28;20182;-74
2021/10/14 06:11:22;;;;;;;39.10;23.77;;;;;;;;;;5061060;28;20196;-73
2021/10/14 06:13:47;;;;;;;36.95;23.50;;;;;;;;;;5048815;28;20177;-74
2021/10/14 06:16:12;;;;;;;37.90;23.80;;;;;;;;;;5068612;28;20198;-73
2021/10/14 06:18:39;;;;;;;32.72;24.48;;;;;;;;;;5069494;28;20246;-74
2021/10/14 06:21:04;;;;;;;36.45;24.63;;;;;;;;;;5068677;28;20193;-73
2021/10/14 06:23:29;;;;;;;34.40;24.23;;;;;;;;;;5065955;28;20177;-73
2021/10/14 06:25:55;;;;;;;36.13;24.17;;;;;;;;;;5068261;28;20189;-74
2021/10/14 06:28:21;;;;;;;33.28;24.25;;;;;;;;;;5070245;28;20658;-74
2021/10/14 06:30:47;;;;;;;33.35;23.40;;;;;;;;;;5072302;28;20188;-74
2021/10/14 06:33:12;;;;;;;35.80;23.33;;;;;;;;;;5061906;28;20232;-73
2021/10/14 06:35:37;;;;;;;32.63;23.35;;;;;;;;;;5068679;28;20196;-73
2021/10/14 06:38:02;;;;;;;37.33;24.52;;;;;;;;;;5071368;28;20234;-73
2021/10/14 06:40:28;;;;;;;34.85;24.02;;;;;;;;;;5071800;28;20201;-73
2021/10/14 06:42:53;;;;;;;35.53;24.05;;;;;;;;;;5067945;28;20209;-74
2021/10/14 06:45:18;;;;;;;37.63;24.35;;;;;;;;;;5066030;28;20173;-74
2021/10/14 06:47:43;;;;;;;40.03;24.63;;;;;;;;;;5046506;28;20685;-74
2021/10/14 06:50:09;;;;;;;37.03;22.08;;;;;;;;;;5047077;28;20230;-73
2021/10/14 06:52:34;;;;;;;47.42;24.80;;;;;;;;;;5065232;28;20265;-74
2021/10/14 06:54:59;;;;;;;36.33;22.08;;;;;;;;;;5047755;28;20180;-74
2021/10/14 06:57:25;;;;;;;35.47;22.63;;;;;;;;;;5047118;28;20261;-74
2021/10/14 06:59:50;;;;;;;34.35;21.60;;;;;;;;;;5065326;28;20204;-74
2021/10/14 07:02:16;;;;;;;34.63;22.77;;;;;;;;;;5065012;28;20688;-74
2021/10/14 07:04:41;;;;;;;36.40;20.95;;;;;;;;;;5068391;28;20177;-74
2021/10/14 07:07:06;;;;;;;36.97;21.42;;;;;;;;;;5065586;28;20720;-74
2021/10/14 07:09:31;;;;;;;40.30;22.52;;;;;;;;;;5046626;28;20183;-74
2021/10/14 07:12:05;;;;;;;32.53;21.80;;;;;;;;;;5067005;28;20173;-73
2021/10/14 07:14:31;;;;;;;29.80;20.88;;;;;;;;;;5064845;28;20211;-74
2021/10/14 07:16:56;;;;;;;31.38;21.42;;;;;;;;;;5064381;28;20628;-74
2021/10/14 07:19:21;;;;;;;27.25;19.83;;;;;;;;;;5064454;28;20184;-74
2021/10/14 07:21:46;;;;;;;33.03;19.90;;;;;;;;;;5065074;28;20213;-73
2021/10/14 07:24:11;;;;;;;35.22;20.27;;;;;;;;;;5055345;28;20178;-74
2021/10/14 07:26:37;;;;;;;34.15;19.73;;;;;;;;;;5055216;28;20285;-74
2021/10/14 07:29:04;;;;;;;29.55;20.45;;;;;;;;;;5053662;28;20173;-73
2021/10/14 07:31:29;;;;;;;31.85;19.60;;;;;;;;;;5045276;28;20334;-74
2021/10/14 07:33:54;;;;;;;36.30;21.15;;;;;;;;;;5060427;28;20264;-74
2021/10/14 07:36:19;;;;;;;28.45;19.33;;;;;;;;;;5060779;28;20206;-74
2021/10/14 07:38:45;;;;;;;25.90;17.50;;;;;;;;;;5062328;28;20649;-73
2021/10/14 07:41:10;;;;;;;31.98;19.98;;;;;;;;;;5047476;28;20193;-73
2021/10/14 07:43:35;;;;;;;24.70;16.95;;;;;;;;;;5068217;28;20181;-74
2021/10/14 07:46:01;;;;;;;39.28;19.58;;;;;;;;;;5067993;28;20199;-73
2021/10/14 07:48:26;;;;;;;24.10;17.65;;;;;;;;;;5069022;28;20181;-75
2021/10/14 07:50:51;;;;;;;24.38;18.13;;;;;;;;;;5064415;28;20655;-73
2021/10/14 07:53:17;;;;;;;24.98;16.92;;;;;;;;;;5059500;28;20216;-74
2021/10/14 07:55:44;;;;;;;20.75;15.48;;;;;;;;;;5067441;28;20226;-74
2021/10/14 07:58:10;;;;;;;25.65;17.60;;;;;;;;;;5075096;22;20298;-70
2021/10/14 08:00:36;;;;;;;25.65;16.63;;;;;;;;;;5057783;28;20193;-70
2021/10/14 08:03:01;;;;;;;27.10;15.60;;;;;;;;;;5061249;28;20536;-70
2021/10/14 08:05:26;;;;;;;24.80;15.85;;;;;;;;;;5064035;28;20627;-70
2021/10/14 08:07:51;;;;;;;23.98;15.80;;;;;;;;;;5057091;28;20742;-70
2021/10/14 08:10:16;;;;;;;27.27;16.97;;;;;;;;;;5030640;28;20198;-70
2021/10/14 08:12:43;;;;;;;24.58;15.45;;;;;;;;;;5047371;28;20436;-71
2021/10/14 08:15:08;;;;;;;21.80;16.10;;;;;;;;;;5048225;28;20181;-71
2021/10/14 08:17:33;;;;;;;22.40;15.68;;;;;;;;;;5033731;28;20530;-70
2021/10/14 08:19:58;;;;;;;21.75;15.43;;;;;;;;;;5047598;28;20236;-70
2021/10/14 08:22:23;;;;;;;23.52;16.27;;;;;;;;;;5050111;28;20719;-70
2021/10/14 08:24:49;;;;;;;28.08;16.48;;;;;;;;;;5050244;28;20222;-70
2021/10/14 08:27:14;;;;;;;23.83;14.88;;;;;;;;;;5048214;28;20189;-70
2021/10/14 08:29:39;;;;;;;21.35;14.85;;;;;;;;;;5050545;28;20249;-70
2021/10/14 08:32:05;;;;;;;20.73;15.13;;;;;;;;;;5049262;28;20821;-71
2021/10/14 08:34:30;;;;;;;21.90;15.55;;;;;;;;;;5027701;28;20182;-71
2021/10/14 08:36:56;;;;;;;22.60;15.85;;;;;;;;;;5030494;28;20201;-70
2021/10/14 08:39:21;;;;;;;21.40;14.70;;;;;;;;;;5029850;28;20218;-70
2021/10/14 08:41:47;;;;;;;20.45;15.30;;;;;;;;;;5031759;28;21251;-70
2021/10/14 08:44:19;;;;;;;22.67;15.70;;;;;;;;;;5029398;28;20169;-70
2021/10/14 08:46:44;;;;;;;20.75;14.82;;;;;;;;;;5036678;28;20220;-71
2021/10/14 08:49:10;;;;;;;21.25;14.43;;;;;;;;;;5039397;28;20265;-71
2021/10/14 08:51:35;;;;;;;19.38;14.38;;;;;;;;;;5031361;28;20661;-70
2021/10/14 08:54:01;;;;;;;20.70;16.13;;;;;;;;;;5027837;28;20210;-71
2021/10/14 08:56:28;;;;;;;20.77;15.50;;;;;;;;;;5028516;28;20259;-70
2021/10/14 08:58:53;;;;;;;20.20;16.05;;;;;;;;;;5030904;28;20556;-71
2021/10/14 09:01:18;;;;;;;23.75;17.25;;;;;;;;;;5029809;28;20205;-70
2021/10/14 09:03:47;;;;;;;21.90;15.40;;;;;;;;;;5031155;28;20236;-71
2021/10/14 09:06:13;;;;;;;19.23;15.52;;;;;;;;;;5025975;28;20180;-70
2021/10/14 09:08:43;;;;;;;23.17;16.58;;;;;;;;;;5028567;28;20181;-70
2021/10/14 09:11:13;;;;;;;19.45;15.80;;;;;;;;;;5025837;28;20197;-70
2021/10/14 09:13:42;;;;;;;22.42;16.90;;;;;;;;;;5031725;28;21681;-70
2021/10/14 09:16:22;;;;;;;26.85;16.73;;;;;;;;;;5023097;28;20185;-71
2021/10/14 09:18:48;;;;;;;23.02;18.25;;;;;;;;;;5010890;28;20189;-71
2021/10/14 09:21:22;;;;;;;19.67;15.68;;;;;;;;;;5033262;28;20762;-70
2021/10/14 09:23:47;;;;;;;20.50;15.55;;;;;;;;;;5029181;28;20235;-70
2021/10/14 09:26:12;;;;;;;20.42;16.70;;;;;;;;;;5025618;28;20553;-70
2021/10/14 09:28:37;;;;;;;24.55;17.73;;;;;;;;;;5031436;28;20199;-70
2021/10/14 09:31:04;;;;;;;20.83;17.37;;;;;;;;;;5030918;28;20247;-71
2021/10/14 09:33:45;;;;;;;21.48;16.88;;;;;;;;;;5030780;28;20431;-71
2021/10/14 09:36:21;;;;;;;20.15;15.68;;;;;;;;;;5031642;28;20267;-71
2021/10/14 09:38:49;;;;;;;19.70;17.05;;;;;;;;;;5029195;28;20185;-70
2021/10/14 09:41:16;;;;;;;21.02;17.02;;;;;;;;;;5028433;28;20555;-70
2021/10/14 09:43:42;;;;;;;29.65;18.08;;;;;;;;;;5026255;28;20182;-71
2021/10/14 09:46:07;;;;;;;18.75;16.20;;;;;;;;;;5029450;28;20181;-70
2021/10/14 09:48:36;;;;;;;20.95;16.02;;;;;;;;;;5027962;28;20230;-71
2021/10/14 09:51:02;;;;;;;19.02;16.08;;;;;;;;;;5026555;28;20177;-70
2021/10/14 09:53:27;;;;;;;17.02;14.73;;;;;;;;;;5031927;28;20178;-70
2021/10/14 09:55:53;;;;;;;18.55;14.73;;;;;;;;;;5035244;28;20614;-71
2021/10/14 09:58:19;;;;;;;17.88;14.10;;;;;;;;;;5032867;28;20220;-71
2021/10/14 10:00:45;;;;;;;16.67;13.85;;;;;;;;;;5035175;28;20238;-70
2021/10/14 10:03:11;;;;;;;16.10;14.20;;;;;;;;;;5034613;28;20182;-72
2021/10/14 10:05:37;;;;;;;16.73;14.27;;;;;;;;;;5032598;28;20190;-72
2021/10/14 10:08:08;;;;;;;16.42;13.98;;;;;;;;;;5032909;28;20296;-72
2021/10/14 10:10:35;;;;;;;16.13;14.25;;;;;;;;;;5029991;28;20754;-72
2021/10/14 10:13:00;;;;;;;18.40;14.35;;;;;;;;;;5032668;28;20213;-72
2021/10/14 10:15:35;;;;;;;17.75;14.05;;;;;;;;;;5032874;28;20276;-72
2021/10/14 10:18:00;;;;;;;16.40;14.73;;;;;;;;;;5014458;28;20240;-73
2021/10/14 10:20:39;;;;;;;19.50;15.63;;;;;;;;;;5036770;28;20464;-72
2021/10/14 10:23:04;;;;;;;21.25;15.80;;;;;;;;;;5031956;28;20430;-72
2021/10/14 10:25:29;;;;;;;19.35;14.98;;;;;;;;;;5031739;28;20804;-72
2021/10/14 10:27:57;;;;;;;21.38;17.15;;;;;;;;;;5034573;28;20202;-73
2021/10/14 10:30:29;;;;;;;18.17;15.65;;;;;;;;;;5017214;28;20269;-72
2021/10/14 10:32:54;;;;;;;21.05;15.63;;;;;;;;;;5029409;28;21645;-72
2021/10/14 10:35:39;;;;;;;16.77;14.95;;;;;;;;;;5028507;28;20173;-72
2021/10/14 10:38:17;;;;;;;19.63;14.90;;;;;;;;;;5028517;28;20674;-72
2021/10/14 10:40:44;;;;;;;19.33;13.25;;;;;;;;;;5009441;28;20239;-72
2021/10/14 10:43:11;;;;;;;19.83;14.40;;;;;;;;;;5032835;28;20178;-72
2021/10/14 10:45:49;;;;;;;16.80;12.85;;;;;;;;;;5029830;28;20638;-72
2021/10/14 10:48:14;;;;;;;16.20;12.00;;;;;;;;;;5028427;28;20206;-72
2021/10/14 10:50:39;;;;;;;17.27;13.07;;;;;;;;;;5029883;28;20257;-72
2021/10/14 10:53:09;;;;;;;15.88;12.15;;;;;;;;;;5030854;28;20187;-72
2021/10/14 10:55:40;;;;;;;20.60;12.30;;;;;;;;;;5025266;28;21010;-72
2021/10/14 10:58:09;;;;;;;18.70;13.32;;;;;;;;;;5036238;28;20213;-72
2021/10/14 11:00:36;;;;;;;24.20;15.18;;;;;;;;;;5032513;28;20917;-72
2021/10/14 11:03:08;;;;;;;20.70;14.77;;;;;;;;;;5014243;28;20184;-72
2021/10/14 11:05:40;;;;;;;33.40;15.65;;;;;;;;;;5028433;28;20182;-72
2021/10/14 11:08:09;;;;;;;17.83;14.02;;;;;;;;;;5029707;28;20263;-72
2021/10/14 11:10:34;;;;;;;19.90;14.82;;;;;;;;;;5031463;28;20185;-72
2021/10/14 11:12:59;;;;;;;20.80;15.05;;;;;;;;;;5034315;28;20186;-72
2021/10/14 11:15:28;;;;;;;21.27;15.68;;;;;;;;;;5029947;28;21346;-72
2021/10/14 11:18:03;;;;;;;17.20;14.68;;;;;;;;;;5031018;28;20209;-72
2021/10/14 11:20:28;;;;;;;18.95;15.63;;;;;;;;;;5031005;28;20734;-72
2021/10/14 11:23:00;;;;;;;22.88;16.38;;;;;;;;;;5029579;28;20584;-72
2021/10/14 11:25:25;;;;;;;17.55;15.25;;;;;;;;;;5040945;28;20678;-72
2021/10/14 11:28:20;;;;;;;16.13;14.33;;;;;;;;;;5036373;28;20229;-72
2021/10/14 11:30:47;;;;;;;19.45;15.18;;;;;;;;;;5016367;28;20525;-72
2021/10/14 11:33:26;;;;;;;19.27;15.50;;;;;;;;;;5013884;28;20178;-71
2021/10/14 11:35:56;;;;;;;19.10;14.88;;;;;;;;;;5035627;28;20200;-71
2021/10/14 11:38:21;;;;;;;16.90;14.93;;;;;;;;;;5032505;28;21274;-72
2021/10/14 11:40:48;;;;;;;23.07;17.37;;;;;;;;;;5025249;28;20327;-72
2021/10/14 11:43:14;;;;;;;18.60;15.65;;;;;;;;;;5027708;28;20449;-72
2021/10/14 11:45:44;;;;;;;17.85;15.95;;;;;;;;;;5024531;28;20200;-72
2021/10/14 11:48:31;;;;;;;21.65;15.48;;;;;;;;;;5037539;28;20291;-72
2021/10/14 11:51:07;;;;;;;18.98;15.70;;;;;;;;;;5031189;28;20326;-72
2021/10/14 11:53:32;;;;;;;19.85;14.68;;;;;;;;;;5029715;28;20200;-72
2021/10/14 11:55:58;;;;;;;19.88;15.80;;;;;;;;;;5010795;28;20193;-72
2021/10/14 11:58:24;;;;;;;19.58;14.10;;;;;;;;;;5025057;28;20275;-72
2021/10/14 12:00:49;;;;;;;16.20;13.27;;;;;;;;;;5026367;28;20230;-72
2021/10/14 12:03:14;;;;;;;17.42;15.60;;;;;;;;;;5030437;28;20190;-72
2021/10/14 12:05:39;;;;;;;16.60;13.73;;;;;;;;;;5030946;28;20339;-72
2021/10/14 12:08:05;;;;;;;16.42;13.70;;;;;;;;;;5015637;28;20805;-72
2021/10/14 12:10:31;;;;;;;19.65;14.10;;;;;;;;;;5029114;28;20811;-72
2021/10/14 12:13:05;;;;;;;18.35;14.32;;;;;;;;;;5033159;28;20212;-72
2021/10/14 12:15:31;;;;;;;32.15;14.15;;;;;;;;;;5030255;28;20292;-72
2021/10/14 12:17:56;;;;;;;15.82;12.07;;;;;;;;;;5033500;28;20802;-72
2021/10/14 12:20:22;;;;;;;13.33;11.47;;;;;;;;;;5028185;28;20200;-72
2021/10/14 12:22:49;;;;;;;13.88;11.20;;;;;;;;;;5028970;28;20936;-71
2021/10/14 12:25:26;;;;;;;14.73;11.40;;;;;;;;;;5028243;28;20538;-71
2021/10/14 12:27:53;;;;;;;15.80;12.02;;;;;;;;;;5027170;28;20194;-71
2021/10/14 12:30:28;;;;;;;14.25;11.80;;;;;;;;;;5015753;28;20189;-71
2021/10/14 12:33:14;;;;;;;12.85;10.55;;;;;;;;;;5028038;28;20184;-70
2021/10/14 12:35:39;;;;;;;14.25;11.52;;;;;;;;;;5022672;28;20209;-70
2021/10/14 12:38:04;;;;;;;14.82;10.60;;;;;;;;;;5026665;28;20205;-70
2021/10/14 12:40:29;;;;;;;14.85;12.45;;;;;;;;;;5028569;28;20512;-70
2021/10/14 12:43:00;;;;;;;14.88;11.38;;;;;;;;;;5022203;28;20920;-70
2021/10/14 12:48:11;;;;;;;20.00;13.02;;;;;;;;;;5028748;28;20200;-70
2021/10/14 12:51:08;;;;;;;13.93;10.77;;;;;;;;;;5025006;28;20185;-70
2021/10/14 12:53:56;;;;;;;16.70;11.48;;;;;;;;;;5014315;28;20190;-70
2021/10/14 12:56:32;;;;;;;13.50;11.65;;;;;;;;;;5017255;28;20189;-69
2021/10/14 12:59:02;;;;;;;15.48;10.82;;;;;;;;;;5031759;28;20192;-70
2021/10/14 13:01:28;;;;;;;12.60;9.52;;;;;;;;;;5029396;28;20263;-70
2021/10/14 13:03:54;;;;;;;15.63;10.10;;;;;;;;;;5028681;28;20192;-70
2021/10/14 13:06:19;;;;;;;8.85;7.25;;;;;;;;;;5024339;28;20935;-70
2021/10/14 13:08:46;;;;;;;8.95;7.32;;;;;;;;;;5008757;28;20188;-70
2021/10/14 13:11:12;;;;;;;13.00;6.07;;;;;;;;;;5024655;28;20189;-70
2021/10/14 13:13:38;;;;;;;10.02;7.05;;;;;;;;;;5008248;28;20286;-70
2021/10/14 13:16:03;;;;;;;6.13;5.50;;;;;;;;;;5008204;28;20197;-71
2021/10/14 13:18:29;;;;;;;9.93;5.95;;;;;;;;;;5030284;28;20645;-70
2021/10/14 13:20:55;;;;;;;11.00;5.72;;;;;;;;;;5024756;28;20205;-71
2021/10/14 13:23:20;;;;;;;7.43;5.53;;;;;;;;;;5018332;28;20223;-70
2021/10/14 13:25:46;;;;;;;7.68;6.28;;;;;;;;;;5039352;28;21435;-70
2021/10/14 13:28:12;;;;;;;8.88;6.25;;;;;;;;;;5031846;28;20232;-70
2021/10/14 13:30:37;;;;;;;11.75;7.75;;;;;;;;;;5027620;28;20213;-71
2021/10/14 13:33:02;;;;;;;11.88;8.57;;;;;;;;;;5010321;28;20557;-71
2021/10/14 13:35:28;;;;;;;9.30;8.40;;;;;;;;;;5028337;28;20556;-71
2021/10/14 13:37:53;;;;;;;12.63;9.52;;;;;;;;;;5006787;28;20235;-71
2021/10/14 13:40:18;;;;;;;15.13;10.20;;;;;;;;;;5021599;28;20280;-70
2021/10/14 13:42:49;;;;;;;14.27;9.70;;;;;;;;;;5021853;28;20217;-70
2021/10/14 13:45:16;;;;;;;13.45;9.40;;;;;;;;;;5024242;28;20185;-70
2021/10/14 13:47:41;;;;;;;13.50;10.23;;;;;;;;;;5011658;28;20499;-70
2021/10/14 13:50:07;;;;;;;12.35;10.43;;;;;;;;;;5026574;28;20181;-70
2021/10/14 13:52:34;;;;;;;15.40;10.20;;;;;;;;;;5029711;28;20272;-70
2021/10/14 13:55:00;;;;;;;12.77;9.77;;;;;;;;;;5027866;28;20268;-70
2021/10/14 13:57:25;;;;;;;11.30;10.17;;;;;;;;;;5049676;22;20232;-72
2021/10/14 13:59:50;;;;;;;14.47;9.63;;;;;;;;;;5047723;28;21210;-71
2021/10/14 14:02:16;;;;;;;14.15;10.02;;;;;;;;;;5024463;28;20425;-72
2021/10/14 14:04:41;;;;;;;11.02;9.05;;;;;;;;;;5045980;28;20169;-71
2021/10/14 14:07:06;;;;;;;10.80;9.68;;;;;;;;;;5049618;28;20323;-72
2021/10/14 14:09:33;;;;;;;10.60;8.97;;;;;;;;;;5045578;28;20189;-71
2021/10/14 14:11:58;;;;;;;11.63;9.32;;;;;;;;;;5043077;28;20434;-72
2021/10/14 14:14:23;;;;;;;10.77;8.60;;;;;;;;;;5046791;28;20193;-72
2021/10/14 14:16:48;;;;;;;12.07;7.85;;;;;;;;;;5025768;28;21070;-72